createdAt,value
2023-04-03T00:10:19.940Z,59.09
2023-04-03T00:20:22.272Z,58.39
2023-04-03T00:30:24.609Z,58.48
2023-04-03T00:40:28.249Z,58.77
2023-04-03T00:50:31.598Z,58.97
2023-04-03T01:00:34.354Z,59.45
2023-04-03T01:11:02.182Z,59.42
2023-04-03T01:21:43.089Z,59.86
2023-04-03T01:31:47.100Z,60.78
2023-04-03T01:41:55.040Z,60.36
2023-04-03T01:51:56.975Z,59.48
2023-04-03T02:01:58.898Z,61.03
2023-04-03T02:12:00.873Z,61.27
2023-04-03T02:22:04.317Z,61.06
2023-04-03T02:32:06.650Z,60.32
2023-04-03T02:42:08.761Z,61.22
2023-04-03T02:52:15.733Z,62.06
2023-04-03T03:02:17.705Z,61.54
2023-04-03T03:12:23.064Z,62.43
2023-04-03T03:22:25.140Z,63.26
2023-04-03T03:32:27.100Z,64.17
2023-04-03T03:42:34.892Z,64.17
2023-04-03T03:52:36.957Z,63.39
2023-04-03T04:02:38.978Z,64.53
2023-04-03T04:13:05.927Z,65.52
2023-04-03T04:23:07.864Z,64.01
2023-04-03T04:33:10.044Z,63.99
2023-04-03T04:43:17.867Z,62.93
2023-04-03T04:53:19.807Z,60.32
2023-04-03T05:03:26.198Z,59.25
2023-04-03T05:13:29.271Z,56.44
2023-04-03T05:23:32.667Z,54.62
2023-04-03T05:33:51.306Z,54.26
2023-04-03T05:44:01.761Z,55.15
2023-04-03T05:54:15.100Z,53.62
2023-04-03T06:04:41.879Z,56.19
2023-04-03T06:14:43.986Z,52.84
2023-04-03T06:25:02.176Z,51.59
2023-04-03T06:35:09.850Z,49.71
2023-04-03T06:45:14.269Z,53.04
2023-04-03T06:55:19.743Z,49.48
2023-04-03T07:05:23.840Z,53.60
2023-04-03T07:15:26.073Z,49.69
2023-04-03T07:25:28.222Z,48.79
2023-04-03T07:35:49.873Z,51.33
2023-04-03T07:45:52.499Z,49.96
2023-04-03T07:55:56.845Z,47.81
2023-04-03T08:06:15.638Z,47.68
2023-04-03T08:16:21.691Z,46.26
2023-04-03T08:26:25.933Z,45.43
2023-04-03T08:36:31.547Z,46.12
2023-04-03T08:46:50.049Z,45.89
2023-04-03T08:57:03.996Z,43.58
2023-04-03T09:07:35.042Z,42.88
2023-04-03T09:17:54.578Z,45.88
2023-04-03T09:28:01.042Z,42.44
2023-04-03T09:38:17.956Z,44.36
2023-04-03T09:48:26.056Z,41.32
2023-04-03T09:58:49.756Z,39.39
2023-04-03T10:09:21.732Z,41.50
2023-04-03T10:19:33.602Z,39.44
2023-04-03T10:29:47.952Z,40.58
2023-04-03T10:40:01.837Z,41.37
2023-04-03T10:50:32.937Z,38.57
2023-04-03T11:00:58.397Z,42.14
2023-04-03T11:11:22.913Z,39.59
2023-04-03T11:21:36.896Z,39.80
2023-04-03T11:31:55.549Z,42.16
2023-04-03T11:42:34.079Z,39.90
2023-04-03T11:52:44.951Z,40.53
2023-04-03T12:02:54.394Z,41.23
2023-04-03T12:13:00.312Z,39.72
2023-04-03T12:23:37.610Z,37.43
2023-04-03T12:34:07.145Z,38.67
2023-04-03T12:45:12.027Z,36.70
2023-04-03T12:55:36.885Z,34.92
2023-04-03T13:05:40.036Z,37.83
2023-04-03T13:15:46.640Z,34.67
2023-04-03T13:26:04.714Z,36.68
2023-04-03T13:36:37.857Z,39.01
2023-04-03T13:46:48.789Z,37.20
2023-04-03T13:56:59.346Z,40.15
2023-04-03T14:07:05.891Z,40.98
2023-04-03T14:17:25.054Z,38.54
2023-04-03T14:27:37.284Z,40.00
2023-04-03T14:37:41.226Z,39.91
2023-04-03T14:47:53.500Z,40.49
2023-04-03T14:58:18.423Z,39.94
2023-04-03T15:08:26.944Z,38.94
2023-04-03T15:18:39.057Z,39.86
2023-04-03T15:28:43.463Z,38.21
2023-04-03T15:38:46.473Z,40.00
2023-04-03T15:48:48.846Z,39.73
2023-04-03T15:59:02.327Z,41.56
2023-04-03T16:09:04.486Z,40.78
2023-04-03T16:19:14.361Z,41.67
2023-04-03T16:29:18.454Z,40.06
2023-04-03T16:39:20.878Z,42.31
2023-04-03T16:49:23.109Z,42.79
2023-04-03T16:59:25.649Z,41.81
2023-04-03T17:09:27.827Z,43.77
2023-04-03T17:19:44.645Z,42.53
2023-04-03T17:29:56.826Z,43.69
2023-04-03T17:40:01.803Z,43.57
2023-04-03T17:50:04.302Z,44.00
2023-04-03T18:00:08.387Z,44.74
2023-04-03T18:10:12.141Z,44.87
2023-04-03T18:20:16.724Z,46.21
2023-04-03T18:30:27.246Z,46.58
2023-04-03T18:40:34.088Z,47.86
2023-04-03T18:50:37.345Z,47.50
2023-04-03T19:00:44.536Z,49.04
2023-04-03T19:10:47.764Z,49.39
2023-04-03T19:20:50.532Z,49.95
2023-04-03T19:30:54.224Z,52.03
2023-04-03T19:41:00.400Z,51.97
2023-04-03T19:51:05.283Z,51.17
2023-04-03T20:01:07.666Z,52.50
2023-04-03T20:11:10.472Z,53.22
2023-04-03T20:21:14.538Z,53.58
2023-04-03T20:31:26.418Z,53.84
2023-04-03T20:41:41.323Z,54.51
2023-04-03T20:51:53.401Z,52.93
2023-04-03T21:01:55.327Z,53.09
2023-04-03T21:12:37.748Z,54.63
2023-04-03T21:22:43.851Z,54.75
2023-04-03T21:32:49.889Z,55.51
2023-04-03T21:42:59.705Z,56.33
2023-04-03T21:53:07.445Z,57.02
2023-04-03T22:03:10.667Z,56.58
2023-04-03T22:13:13.336Z,57.69
2023-04-03T22:23:15.635Z,58.86
2023-04-03T22:33:22.941Z,59.18
2023-04-03T22:43:25.463Z,59.76
2023-04-03T22:53:39.074Z,59.67
2023-04-03T23:03:42.707Z,59.78
2023-04-03T23:13:44.692Z,59.61
2023-04-03T23:23:46.895Z,60.70
2023-04-03T23:34:13.569Z,61.59
2023-04-03T23:44:15.504Z,61.59
2023-04-03T23:54:17.407Z,62.92
